createdAt,value
2019-06-26T00:00:11.318Z,30.60
2019-06-26T00:01:11.058Z,30.57
2019-06-26T00:02:11.088Z,30.57
2019-06-26T00:03:11.194Z,30.56
2019-06-26T00:04:11.167Z,30.60
2019-06-26T00:05:11.221Z,30.60
2019-06-26T00:06:11.256Z,30.54
2019-06-26T00:07:11.594Z,30.60
2019-06-26T00:08:11.330Z,30.54
2019-06-26T00:09:11.361Z,30.53
2019-06-26T00:10:11.400Z,30.49
2019-06-26T00:11:11.472Z,30.53
2019-06-26T00:12:11.475Z,30.56
2019-06-26T00:13:25.272Z,30.70
2019-06-26T00:14:11.798Z,30.56
2019-06-26T00:15:11.590Z,30.60
2019-06-26T00:16:11.631Z,30.63
2019-06-26T00:17:11.668Z,30.53
2019-06-26T00:18:11.722Z,30.56
2019-06-26T00:19:11.749Z,30.72
2019-06-26T00:20:11.785Z,30.72
2019-06-26T00:21:12.120Z,30.66
2019-06-26T00:22:11.860Z,30.61
2019-06-26T00:23:11.900Z,30.63
2019-06-26T00:24:11.885Z,30.63
2019-06-26T00:25:11.974Z,30.56
2019-06-26T00:26:12.012Z,30.54
2019-06-26T00:27:12.068Z,30.61
2019-06-26T00:28:12.386Z,30.61
2019-06-26T00:29:12.128Z,30.63
2019-06-26T00:30:12.163Z,30.60
2019-06-26T00:31:12.207Z,30.57
2019-06-26T00:32:12.248Z,30.61
2019-06-26T00:33:12.289Z,30.49
2019-06-26T00:34:12.315Z,30.49
2019-06-26T00:35:12.661Z,30.45
2019-06-26T00:36:12.420Z,30.53
2019-06-26T00:37:12.437Z,30.40
2019-06-26T00:38:12.486Z,30.37
2019-06-26T00:39:12.464Z,30.40
2019-06-26T00:40:12.600Z,30.37
2019-06-26T00:41:12.587Z,30.37
2019-06-26T00:42:12.939Z,30.30
2019-06-26T00:43:12.665Z,30.29
2019-06-26T00:44:12.701Z,30.25
2019-06-26T00:45:12.745Z,30.23
2019-06-26T00:46:12.747Z,30.26
2019-06-26T00:47:12.821Z,30.25
2019-06-26T00:48:12.862Z,30.16
2019-06-26T00:49:13.199Z,30.26
2019-06-26T00:50:12.934Z,30.18
2019-06-26T00:51:12.977Z,30.11
2019-06-26T00:52:12.969Z,30.13
2019-06-26T00:53:13.051Z,30.11
2019-06-26T00:54:13.088Z,30.08
2019-06-26T00:55:13.424Z,29.97
2019-06-26T00:56:13.167Z,29.99
2019-06-26T00:57:13.204Z,29.91
2019-06-26T00:58:13.248Z,29.95
2019-06-26T00:59:13.291Z,30.03
2019-06-26T01:00:13.355Z,29.95
2019-06-26T01:01:13.657Z,30.01
2019-06-26T01:02:13.406Z,29.99
2019-06-26T01:03:13.428Z,30.03
2019-06-26T01:04:13.473Z,30.13
2019-06-26T01:05:13.528Z,29.97
2019-06-26T01:06:13.547Z,30.01
2019-06-26T01:07:13.895Z,30.01
2019-06-26T01:08:13.635Z,29.97
2019-06-26T01:09:13.659Z,30.01
2019-06-26T01:10:13.754Z,29.99
2019-06-26T01:11:13.732Z,30.10
2019-06-26T01:12:13.770Z,30.01
2019-06-26T01:13:13.809Z,30.08
2019-06-26T01:14:14.152Z,30.04
2019-06-26T01:15:13.896Z,30.01
2019-06-26T01:16:14.005Z,29.94
2019-06-26T01:17:13.917Z,29.95
2019-06-26T01:18:14.009Z,29.91
2019-06-26T01:19:14.049Z,29.89
2019-06-26T01:21:14.118Z,29.88
2019-06-26T01:22:14.463Z,29.89
2019-06-26T01:23:14.197Z,29.89
2019-06-26T01:24:14.228Z,29.85
2019-06-26T01:25:14.226Z,29.91
2019-06-26T01:27:14.349Z,29.89
2019-06-26T01:28:14.396Z,29.95
2019-06-26T01:29:14.721Z,29.91
2019-06-26T01:30:14.476Z,29.88
2019-06-26T01:31:14.500Z,29.81
2019-06-26T01:32:14.533Z,29.74
2019-06-26T01:33:14.577Z,29.64
2019-06-26T01:34:14.617Z,29.60
2019-06-26T01:35:14.653Z,29.60
2019-06-26T01:36:15.001Z,29.47
2019-06-26T01:37:14.734Z,29.45
2019-06-26T01:38:14.773Z,29.45
2019-06-26T01:39:14.806Z,29.44
2019-06-26T01:40:14.799Z,29.44
2019-06-26T01:41:14.890Z,29.39
2019-06-26T01:42:14.919Z,29.27
2019-06-26T01:43:15.259Z,29.30
2019-06-26T01:44:15.774Z,29.33
2019-06-26T01:45:15.034Z,29.32
2019-06-26T01:46:15.065Z,29.33
2019-06-26T01:47:15.115Z,29.33
2019-06-26T01:48:15.169Z,29.26
2019-06-26T01:49:15.185Z,29.33
2019-06-26T01:50:15.526Z,29.33
2019-06-26T01:51:15.266Z,29.42
2019-06-26T01:52:15.304Z,29.42
2019-06-26T01:53:15.338Z,29.47
2019-06-26T01:54:15.376Z,29.42
2019-06-26T01:55:15.461Z,29.42
2019-06-26T01:56:15.449Z,29.42
2019-06-26T01:57:15.793Z,29.45
2019-06-26T01:58:15.555Z,29.48
2019-06-26T01:59:15.597Z,29.45
2019-06-26T02:00:15.613Z,29.45
2019-06-26T02:01:15.649Z,29.51
2019-06-26T02:02:15.680Z,29.47
2019-06-26T02:03:15.724Z,29.47
2019-06-26T02:04:16.049Z,29.44
2019-06-26T02:05:15.785Z,29.49
2019-06-26T02:06:15.827Z,29.47
2019-06-26T02:07:15.863Z,29.41
2019-06-26T02:08:15.905Z,29.49
2019-06-26T02:09:15.942Z,29.52
2019-06-26T02:10:15.983Z,29.51
2019-06-26T02:11:16.323Z,29.49
2019-06-26T02:12:16.057Z,29.48
2019-06-26T02:13:16.110Z,29.55
2019-06-26T02:14:29.938Z,29.57
2019-06-26T02:15:16.121Z,29.54
2019-06-26T02:16:16.203Z,29.47
2019-06-26T02:17:16.254Z,29.48
2019-06-26T02:18:16.584Z,29.49
2019-06-26T02:19:16.328Z,29.54
2019-06-26T02:20:16.360Z,29.44
2019-06-26T02:21:16.418Z,29.49
2019-06-26T02:22:16.435Z,29.45
2019-06-26T02:23:16.417Z,29.41
2019-06-26T02:24:16.517Z,29.49
2019-06-26T02:25:16.809Z,29.45
2019-06-26T02:26:16.586Z,29.48
2019-06-26T02:27:16.624Z,29.35
2019-06-26T02:28:16.664Z,29.37
2019-06-26T02:29:16.699Z,29.39
2019-06-26T02:30:16.720Z,29.32
2019-06-26T02:31:16.770Z,29.35
2019-06-26T02:32:17.115Z,29.32
2019-06-26T02:33:16.849Z,29.30
2019-06-26T02:34:16.842Z,29.36
2019-06-26T02:36:17.048Z,29.26
2019-06-26T02:37:17.001Z,29.15
2019-06-26T02:38:17.039Z,29.17
2019-06-26T02:39:17.377Z,29.20
2019-06-26T02:40:17.064Z,29.18
2019-06-26T02:41:17.105Z,29.10
2019-06-26T02:42:17.192Z,29.00
2019-06-26T02:43:17.236Z,29.05
2019-06-26T02:45:17.304Z,28.97
2019-06-26T02:46:17.650Z,28.92
2019-06-26T02:47:20.094Z,28.89
2019-06-26T02:48:17.422Z,28.87
2019-06-26T02:49:17.473Z,28.80
2019-06-26T02:50:17.492Z,28.85
2019-06-26T02:51:17.526Z,28.83
2019-06-26T02:52:17.570Z,28.85
2019-06-26T02:53:17.913Z,28.89
2019-06-26T02:54:17.648Z,28.83
2019-06-26T02:55:17.682Z,28.87
2019-06-26T02:56:17.718Z,28.82
2019-06-26T02:57:17.700Z,28.87
2019-06-26T02:58:17.806Z,28.91
2019-06-26T02:59:18.153Z,28.89
2019-06-26T03:00:17.885Z,28.89
2019-06-26T03:01:17.859Z,28.89
2019-06-26T03:02:17.952Z,28.85
2019-06-26T03:03:17.982Z,28.91
2019-06-26T03:04:18.013Z,28.88
2019-06-26T03:05:18.355Z,28.95
2019-06-26T03:06:18.089Z,28.95
2019-06-26T03:07:18.132Z,28.98
2019-06-26T03:08:18.171Z,28.92
2019-06-26T03:09:18.200Z,28.91
2019-06-26T03:10:18.447Z,28.92
2019-06-26T03:11:18.586Z,28.92
2019-06-26T03:12:18.331Z,28.89
2019-06-26T03:13:18.357Z,28.98
2019-06-26T03:14:18.390Z,28.94
2019-06-26T03:15:18.382Z,28.94
2019-06-26T03:16:18.468Z,28.91
2019-06-26T03:17:18.461Z,28.80
2019-06-26T03:18:18.840Z,28.92
2019-06-26T03:19:18.578Z,28.83
2019-06-26T03:22:18.638Z,28.77
2019-06-26T03:23:18.730Z,28.77
2019-06-26T03:24:18.714Z,28.62
2019-06-26T03:25:19.104Z,28.64
2019-06-26T03:26:18.844Z,28.62
2019-06-26T03:27:18.887Z,28.55
2019-06-26T03:28:18.923Z,28.55
2019-06-26T03:29:18.948Z,28.52
2019-06-26T03:30:18.993Z,28.54
2019-06-26T03:31:19.036Z,28.55
2019-06-26T03:32:19.373Z,28.65
2019-06-26T03:33:19.105Z,28.69
2019-06-26T03:34:19.136Z,28.64
2019-06-26T03:35:19.189Z,28.79
2019-06-26T03:36:19.217Z,28.77
2019-06-26T03:37:19.254Z,28.83
2019-06-26T03:38:19.285Z,28.83
2019-06-26T03:39:19.626Z,28.87
2019-06-26T03:40:19.369Z,28.98
2019-06-26T03:42:54.923Z,29.10
2019-06-26T03:43:54.965Z,29.10
2019-06-26T03:44:55.009Z,29.12
2019-06-26T03:45:55.053Z,29.20
2019-06-26T03:46:55.101Z,29.18
2019-06-26T03:47:55.108Z,29.25
2019-06-26T03:48:55.446Z,29.32
2019-06-26T03:49:55.191Z,29.35
2019-06-26T03:50:55.264Z,29.26
2019-06-26T03:51:55.264Z,29.30
2019-06-26T03:52:55.305Z,29.42
2019-06-26T03:53:55.335Z,29.41
2019-06-26T03:54:55.379Z,29.47
2019-06-26T03:55:55.730Z,29.48
2019-06-26T03:56:55.451Z,29.44
2019-06-26T03:57:55.485Z,29.48
2019-06-26T03:58:55.526Z,29.48
2019-06-26T03:59:55.791Z,29.49
2019-06-26T04:00:55.690Z,29.51
2019-06-26T04:01:55.630Z,29.57
2019-06-26T04:02:55.979Z,29.57
2019-06-26T04:03:57.439Z,29.62
2019-06-26T04:04:55.804Z,29.51
2019-06-26T04:05:55.779Z,29.60
2019-06-26T04:06:55.810Z,29.64
2019-06-26T04:07:55.855Z,29.67
2019-06-26T04:08:55.897Z,29.64
2019-06-26T04:09:56.234Z,29.67
2019-06-26T04:10:55.930Z,29.66
2019-06-26T04:11:56.026Z,29.74
2019-06-26T04:12:56.052Z,29.71
2019-06-26T04:13:56.093Z,29.70
2019-06-26T04:14:56.119Z,29.76
2019-06-26T04:15:56.159Z,29.76
2019-06-26T04:16:56.448Z,29.82
2019-06-26T04:17:56.199Z,29.82
2019-06-26T04:18:56.278Z,29.81
2019-06-26T04:19:56.329Z,29.81
2019-06-26T04:20:56.346Z,29.81
2019-06-26T04:21:56.386Z,29.92
2019-06-26T04:22:56.438Z,29.82
2019-06-26T04:23:56.765Z,29.85
2019-06-26T04:24:56.499Z,29.94
2019-06-26T04:25:56.539Z,29.94
2019-06-26T04:26:56.521Z,29.94
2019-06-26T04:27:56.612Z,29.85
2019-06-26T04:28:56.653Z,29.88
2019-06-26T04:29:56.697Z,29.94
2019-06-26T04:30:57.032Z,29.94
2019-06-26T04:31:56.761Z,30.04
2019-06-26T04:32:56.805Z,30.06
2019-06-26T04:33:56.837Z,30.04
2019-06-26T04:34:56.879Z,30.04
2019-06-26T04:35:56.915Z,30.01
2019-06-26T04:36:56.896Z,30.04
2019-06-26T04:37:57.293Z,30.03
2019-06-26T04:38:56.979Z,30.11
2019-06-26T04:39:57.032Z,30.01
2019-06-26T04:40:57.110Z,30.00
2019-06-26T04:41:57.137Z,29.99
2019-06-26T04:42:57.127Z,30.11
2019-06-26T04:43:57.222Z,30.15
2019-06-26T04:44:57.571Z,30.10
2019-06-26T04:45:58.678Z,30.13
2019-06-26T04:46:57.327Z,30.13
2019-06-26T04:47:57.368Z,30.11
2019-06-26T04:48:57.410Z,30.18
2019-06-26T04:49:57.469Z,30.19
2019-06-26T04:50:57.482Z,30.13
2019-06-26T04:51:57.833Z,30.11
2019-06-26T04:52:57.560Z,30.19
2019-06-26T04:53:57.597Z,30.13
2019-06-26T04:54:57.631Z,30.16
2019-06-26T04:55:57.671Z,30.21
2019-06-26T04:56:57.734Z,30.26
2019-06-26T04:57:57.745Z,30.21
2019-06-26T04:58:58.109Z,30.19
2019-06-26T04:59:57.820Z,30.22
2019-06-26T05:00:57.866Z,30.28
2019-06-26T05:01:57.899Z,30.13
2019-06-26T05:02:57.938Z,30.28
2019-06-26T05:03:57.974Z,30.21
2019-06-26T05:04:58.312Z,30.21
2019-06-26T05:05:58.053Z,30.26
2019-06-26T05:06:58.088Z,30.26
2019-06-26T05:07:58.127Z,30.26
2019-06-26T05:08:58.122Z,30.26
2019-06-26T05:09:58.154Z,30.26
2019-06-26T05:10:58.546Z,30.25
2019-06-26T05:11:58.303Z,30.28
2019-06-26T05:12:58.327Z,30.34
2019-06-26T05:13:58.357Z,30.30
2019-06-26T05:14:58.392Z,30.25
2019-06-26T05:16:13.667Z,30.38
2019-06-26T05:16:58.469Z,30.37
2019-06-26T05:17:58.505Z,30.32
2019-06-26T05:18:58.547Z,30.42
2019-06-26T05:19:58.589Z,30.30
2019-06-26T05:20:58.624Z,30.34
2019-06-26T05:22:58.713Z,30.37
2019-06-26T05:23:58.752Z,30.37
2019-06-26T05:24:58.774Z,30.37
2019-06-26T05:25:58.813Z,30.37
2019-06-26T05:26:58.856Z,30.37
2019-06-26T05:27:58.931Z,30.40
2019-06-26T05:28:59.237Z,30.42
2019-06-26T05:29:58.971Z,30.42
2019-06-26T05:30:58.962Z,30.38
2019-06-26T05:31:59.059Z,30.45
2019-06-26T05:32:59.076Z,30.45
2019-06-26T05:33:59.116Z,30.51
2019-06-26T05:34:59.155Z,30.51
2019-06-26T05:35:59.497Z,30.42
2019-06-26T05:36:59.302Z,30.49
2019-06-26T05:37:59.289Z,30.53
2019-06-26T05:38:59.308Z,30.53
2019-06-26T05:39:59.403Z,30.46
2019-06-26T05:41:59.425Z,30.49
2019-06-26T05:42:59.767Z,30.51
2019-06-26T05:43:59.496Z,30.48
2019-06-26T05:44:59.543Z,30.56
2019-06-26T05:45:59.598Z,30.48
2019-06-26T05:46:59.613Z,30.54
2019-06-26T05:47:59.659Z,30.60
2019-06-26T05:48:59.689Z,30.57
2019-06-26T05:50:00.028Z,30.54
2019-06-26T05:50:59.865Z,30.54
2019-06-26T05:52:02.080Z,30.59
2019-06-26T05:52:59.846Z,30.53
2019-06-26T05:53:59.889Z,30.49
2019-06-26T05:54:59.936Z,30.48
2019-06-26T05:56:00.263Z,30.46
2019-06-26T05:56:59.994Z,30.59
2019-06-26T05:57:59.988Z,30.57
2019-06-26T05:59:00.093Z,30.57
2019-06-26T06:00:00.184Z,30.48
2019-06-26T06:01:00.155Z,30.61
2019-06-26T06:02:00.508Z,30.57
2019-06-26T06:03:00.229Z,30.56
2019-06-26T06:04:00.275Z,30.57
2019-06-26T06:05:00.304Z,30.61
2019-06-26T06:06:00.358Z,30.60
2019-06-26T06:07:00.386Z,30.59
2019-06-26T06:08:00.733Z,30.57
2019-06-26T06:09:00.407Z,30.60
2019-06-26T06:10:00.455Z,30.59
2019-06-26T06:11:00.541Z,30.59
2019-06-26T06:12:00.592Z,30.60
2019-06-26T06:13:00.616Z,30.57
2019-06-26T06:14:00.655Z,30.53
2019-06-26T06:15:01.036Z,30.60
2019-06-26T06:16:00.731Z,30.61
2019-06-26T06:17:00.765Z,30.57
2019-06-26T06:18:00.901Z,30.59
2019-06-26T06:19:00.857Z,30.57
2019-06-26T06:20:00.878Z,30.54
2019-06-26T06:21:00.914Z,30.57
2019-06-26T06:22:00.962Z,30.59
2019-06-26T06:23:01.029Z,30.68
2019-06-26T06:24:00.983Z,30.64
2019-06-26T06:25:01.127Z,30.67
2019-06-26T06:26:01.093Z,30.66
2019-06-26T06:28:01.196Z,30.63
2019-06-26T06:29:01.539Z,30.61
2019-06-26T06:30:01.286Z,30.70
2019-06-26T06:31:01.302Z,30.66
2019-06-26T06:32:01.294Z,30.63
2019-06-26T06:33:01.356Z,30.70
2019-06-26T06:34:01.474Z,30.67
2019-06-26T06:35:01.533Z,30.76
2019-06-26T06:36:01.504Z,30.63
2019-06-26T06:37:01.481Z,30.72
2019-06-26T06:38:01.572Z,30.68
2019-06-26T06:39:01.622Z,30.63
2019-06-26T06:40:01.656Z,30.63
2019-06-26T06:41:01.750Z,30.72
2019-06-26T06:42:02.047Z,30.76
2019-06-26T06:43:01.767Z,30.75
2019-06-26T06:44:01.806Z,30.73
2019-06-26T06:45:02.119Z,30.67
2019-06-26T06:46:01.900Z,30.70
2019-06-26T06:47:04.394Z,30.72
2019-06-26T06:48:01.916Z,30.72
2019-06-26T06:49:02.299Z,30.70
2019-06-26T06:51:02.076Z,30.66
2019-06-26T06:52:02.160Z,30.73
2019-06-26T06:53:02.152Z,30.64
2019-06-26T06:54:02.193Z,30.73
2019-06-26T06:55:02.251Z,30.64
2019-06-26T06:56:02.572Z,30.73
2019-06-26T06:57:02.310Z,30.75
2019-06-26T06:58:02.366Z,30.75
2019-06-26T06:59:02.411Z,30.64
2019-06-26T07:00:02.417Z,30.76
2019-06-26T07:01:02.457Z,30.68
2019-06-26T07:02:02.757Z,30.73
2019-06-26T07:03:02.538Z,30.72
2019-06-26T07:04:02.572Z,30.75
2019-06-26T07:05:02.613Z,30.75
2019-06-26T07:06:02.653Z,30.73
2019-06-26T07:07:02.708Z,30.78
2019-06-26T07:08:02.934Z,30.78
2019-06-26T07:09:02.913Z,30.75
2019-06-26T07:10:02.821Z,30.83
2019-06-26T07:11:02.917Z,30.75
2019-06-26T07:12:02.917Z,30.83
2019-06-26T07:13:02.966Z,30.76
2019-06-26T07:14:03.334Z,30.72
2019-06-26T07:15:03.071Z,30.79
2019-06-26T07:16:03.171Z,30.81
2019-06-26T07:17:18.912Z,30.72
2019-06-26T07:18:03.189Z,30.82
2019-06-26T07:19:03.169Z,30.79
2019-06-26T07:20:03.236Z,30.82
2019-06-26T07:21:03.628Z,30.75
2019-06-26T07:22:06.973Z,30.75
2019-06-26T07:23:03.344Z,30.78
2019-06-26T07:24:03.446Z,30.86
2019-06-26T07:25:03.435Z,30.81
2019-06-26T07:26:03.465Z,30.70
2019-06-26T07:27:03.503Z,30.75
2019-06-26T07:28:03.921Z,30.73
2019-06-26T07:29:03.602Z,30.76
2019-06-26T07:30:03.632Z,30.75
2019-06-26T07:31:03.732Z,30.73
2019-06-26T07:32:03.745Z,30.75
2019-06-26T07:34:03.806Z,30.83
2019-06-26T07:35:03.801Z,30.83
2019-06-26T07:36:03.941Z,30.85
2019-06-26T07:37:03.865Z,30.76
2019-06-26T07:38:03.929Z,30.79
2019-06-26T07:39:03.977Z,30.81
2019-06-26T07:40:04.023Z,30.81
2019-06-26T07:41:04.077Z,30.81
2019-06-26T07:42:04.088Z,30.81
2019-06-26T07:43:04.095Z,30.82
2019-06-26T07:45:04.215Z,30.91
2019-06-26T07:46:04.233Z,30.83
2019-06-26T07:47:12.713Z,30.88
2019-06-26T07:48:04.299Z,30.86
2019-06-26T07:49:04.334Z,30.83
2019-06-26T07:50:04.377Z,30.83
2019-06-26T07:51:04.408Z,30.81
2019-06-26T07:52:04.464Z,30.86
2019-06-26T07:53:04.819Z,30.90
2019-06-26T07:54:04.548Z,30.90
2019-06-26T07:55:04.586Z,30.93
2019-06-26T07:56:04.687Z,30.78
2019-06-26T07:57:04.684Z,30.81
2019-06-26T07:58:04.710Z,30.91
2019-06-26T07:59:05.025Z,30.88
2019-06-26T08:00:04.792Z,30.93
2019-06-26T08:01:04.817Z,30.83
2019-06-26T08:02:04.830Z,30.90
2019-06-26T08:03:04.969Z,30.83
2019-06-26T08:04:04.926Z,30.91
2019-06-26T08:05:05.326Z,30.94
2019-06-26T08:07:05.068Z,30.93
2019-06-26T08:08:05.074Z,30.94
2019-06-26T08:09:05.135Z,30.88
2019-06-26T08:10:05.177Z,30.96
2019-06-26T08:11:06.525Z,30.91
2019-06-26T08:12:05.595Z,30.96
2019-06-26T08:13:05.286Z,30.86
2019-06-26T08:14:05.316Z,30.91
2019-06-26T08:15:05.352Z,30.86
2019-06-26T08:16:05.447Z,30.85
2019-06-26T08:17:05.448Z,30.88
2019-06-26T08:18:05.480Z,30.86
2019-06-26T08:19:05.571Z,30.83
2019-06-26T08:20:05.618Z,30.91
2019-06-26T08:21:12.669Z,30.91
2019-06-26T08:22:05.631Z,31.01
2019-06-26T08:23:05.658Z,30.82
2019-06-26T08:24:05.708Z,30.91
2019-06-26T08:25:06.125Z,30.90
2019-06-26T08:26:05.824Z,30.91
2019-06-26T08:27:05.859Z,30.94
2019-06-26T08:28:05.877Z,30.83
2019-06-26T08:29:05.902Z,30.93
2019-06-26T08:30:05.949Z,30.96
2019-06-26T08:31:05.996Z,30.85
2019-06-26T08:32:06.325Z,30.85
2019-06-26T08:33:06.079Z,30.93
2019-06-26T08:34:06.130Z,30.96
2019-06-26T08:35:06.153Z,30.88
2019-06-26T08:36:06.213Z,30.93
2019-06-26T08:37:06.221Z,30.85
2019-06-26T08:38:12.451Z,30.98
2019-06-26T08:39:06.287Z,30.85
2019-06-26T08:40:06.408Z,30.83
2019-06-26T08:41:06.374Z,30.82
2019-06-26T08:42:06.452Z,30.86
2019-06-26T08:43:06.459Z,30.88
2019-06-26T08:45:06.563Z,30.90
2019-06-26T08:46:06.944Z,30.91
2019-06-26T08:47:06.694Z,30.91
2019-06-26T08:48:17.323Z,30.85
2019-06-26T08:49:20.944Z,30.88
2019-06-26T08:50:06.714Z,30.93
2019-06-26T08:51:06.813Z,30.82
2019-06-26T08:52:06.824Z,30.82
2019-06-26T08:53:07.191Z,30.86
2019-06-26T08:54:06.926Z,30.90
2019-06-26T08:55:06.949Z,30.86
2019-06-26T08:56:06.977Z,30.94
2019-06-26T08:57:06.999Z,30.93
2019-06-26T08:58:07.031Z,30.83
2019-06-26T08:59:07.116Z,30.88
2019-06-26T09:00:07.474Z,30.90
2019-06-26T09:01:07.172Z,30.90
2019-06-26T09:02:07.201Z,30.93
2019-06-26T09:03:07.329Z,30.94
